Timeline UpdatesTrip UpdatesNews PostsPvt PostsTravel TipsAdmin PostsConv PostsFollowed PostsChat RequestsBlog PostsPNR Posts

Disclaimer
Search
 
 
Mon Apr 21, 2014 10:08:29 ISTHomeTrainsΣChainsAtlasPNRForumGalleryNewsFAQTripsMembersLoginFeedback
No Recent News for this Train
Other Trains in the News **new
Latest...
Rail Budget 2011-12 The run of the following trains will be extended Hubli- Bijapur Passenger to Solapur (56906/56905)
Tue Mar 01, 2011 (08:28PM)
⇐ Return Journey: Train# 56906

56905/Solapur-Hubli Passenger (UnReserved)

Sep 26 2013 (11:51PM)
Change Departure Station:
Change Arrival Station:
Post a Train Travel TipPost a Train Travel Tip **new
Post a Comment/Question/Picture/VideoPost a Comment/Question/Picture/Video
Pantry/Catering
✕ NO Pantry Car
✕ NO Catering
Loco/Rake Reversals
GDG/Gadag Junction (3);
RSA - Rake Sharing
56903/04 solapur dharwar pass
Rake/Coach Composition
UR-7,SLR-2.
Loco
GTL WDM 2A/3A
News    PNR    Forum    Time-Table    Availability    Fare Chart    Map    Arr/Dep History    Trips    Gallery    ΣChains    X/O    Timeline    
Travel Time: 9h 15m    40 halts    Distance: 358 km    Avg Speed: 38 km/hr
Type: Passenger
Zone: SWR/South Western
Departs @ 04:45 (Avg on time)
Platform# ???
SMTWTFS
Solapur/SUR 
Arrives @ 14:00 (Avg 13m late)
Platform# ???
SMTWTFS
Hubli Junction/UBL 

40 halts. 51 intermediate Stations between Solapur and Hubli Junction

Hide intermediate Stations  Show Old Time-Table

#CodeStation NameX/OArrivesAvgDepartsAvgHaltPFDay#KmSpeedElevZoneAddress
1SUR»Solapur (5)»  -04:45+0--10.038461mCRSolapur 413001, Maharashtra
2TKWDTikekarwadi (2)  04:56-104:57+01m--16.960477mCRSolapur, Maharashtra
3HGHotgi Junction (3)  05:05+105:07+12m1114.971473mCRHotgi 413215, Maharashtra
3.1AHDAherwadi  05:13-05:13-  122.1 71469mSWRSholapur, Karnataka
3.2SLGESulerjavalge (1)  05:18-05:18-  127.7 71453mSWRDist. Solapur, Maharashtra
4TVLTadwal (1)  05:24+1505:25+171m1135.147455mSWRMundhewadi, Maharashtra
4.1PDNRPadnur  05:35-05:35-  143.2 47428mSWRShegao to Alagi Rd, Karnataka
5LHNLachyan (1)  05:42+1205:43+121m1148.478455mSWRBijapur, Karnataka
6IDRIndi Road (2)  05:51+1705:52+201m--158.875490mSWRDist. Bijapur, Karnataka
6.1CHRGChorgi  05:58-05:58-  165.9 75492mSWRBijapur, Karnataka
7NBLNimbal (1)  06:03+2106:05+202m1172.569522mSWRBijapur, Karnataka
7.1KTKKyataneakeri Road  06:13-06:13-  181.4 69570mSWRBijapur, Karnataka
8MNLMinchnal (1)  06:21+2706:22+271m1191.034516mSWRBijapur, Karnataka
8.1AYBAliyabadX  06:45-06:45-  1103.7 34564mSWRBijapur, Karnataka
9BJPBijapur (3)  06:55+507:00+105m21109.536597mSWRBijapur, Karnataka
10IMRIbrahimpur  07:07+2207:08+221m--1113.655629mSWRBijapur, Karnataka
11HOHHonaganahalli  07:24+2107:25+211m--1128.433590mSWRNational Highway 218, Karnataka
11.1JMLJumnal (1)  07:29-07:29-  1130.6 33589m???Gulbarga-Bijapur-Hubli Hwy, Karnataka
12MVDMulvad (1)  07:37+2107:38+211m11135.157627mSWRBijapur, Karnataka
13KGIHKalgurki Halt  07:46+1907:47+191m--1142.745653mSWRKalgurkiH, Karnataka
14KDGIKudgi  07:54+1807:55+181m--1147.940608mSWRNH 13, Karnataka
15BSRXBagevadi Road (2)  08:04+1808:05+191m--1153.956578mSWRBagevadi, Karnataka
16ANGRAngadgeri Halt  08:09+1908:10+191m--1157.638583mSWRAngadgeri, Karnataka
17WDLWandal (1)X  08:17+1908:18+191m11162.048557mSWRDam Inspection Rd, Karnataka
18BENLBenl  08:24+1908:25+191m--1166.835535mSWRDam Inspection Rd, Karnataka
19LMTAlmatti (2)  08:33+1908:35+252m--1171.647535mSWRBijapur, Karnataka
20KSARKudala Sangam Road  08:41+2608:42+261m--1176.259508mSWRNH 13, Karnataka
21SIISitimani  08:47+2808:48+281m--1181.155536mSWRDam Inspection Rd, Karnataka
22JRKTJadrama Kunti (1)  08:54+2808:55+281m11186.648536mSWRNational Highway 13, Karnataka
23KLMKadlimatti  09:04+2809:05+281m--1193.828574mSWRState Highway 20, Karnataka
24MGLMugalolli H (1)  09:14+2809:15+281m11198.040527mSWRMugalolli, Karnataka
25BGKBagalkot (3)  09:28+2909:30+342m--1206.840541mSWRBagalkot, Karnataka
26GEDGuledagudda Road (2)X  09:49+3509:50+351m--1219.658565mSWRSH 44, Karnataka
27BDMBadami (2)  10:04+3210:05+321m--1233.245573mSWRBagalkot, Karnataka
28YGAYerra Goppa Halt  10:14+3610:15+361m--1239.946573mSWRYerra Goppa, Karnataka
29LKYLakhmapur (1)  10:21+3610:22+361m11244.543578mSWRMuttalageri, Karnataka
30JAKJakanur  10:29+3610:30+361m--1249.541546mSWRBadami Rd, Karnataka
31HLARHole Alur (2)  10:34+3610:35+371m--1252.344543mSWRBadami Rd, Karnataka
32SMKTSomankatti  10:44+3210:45+321m--1258.834574mSWRState Highway 30, Karnataka
33MLPMallapur (1)  11:04+3111:05+321m11269.661596mSWRState Highway 30, Karnataka
34BLRBalganur (1)  11:14+3411:15+341m11278.761610mSWRGadag, Karnataka
35HBLHombal (1)  11:24+3811:25+391m11287.922631mSWRBelavaniki, Karnataka
36GDGGadag Junction (3)12:00+2312:05+335m--1300.726655mSWRGadag, Karnataka
36.1BKITBinkadakatti (2)  12:18-12:18-  1306.4 26651mSWRBinkadkatti, Karnataka
37LKTHulkoti  12:33+3012:35+352m--1312.9-654mSWRNational Highway 63, Karnataka
37.1KNKPKondikoppa  12:36-12:36-  1319.3 -622mSWRAnnigeri Rural, Karnataka
38NGRAnnigeri (2)X  12:37+4112:38+421m--1323.628634mSWRDist. Dharwad, Karnataka
38.1NVDNavalgund Road (1)X  12:56-12:56-  1331.8 28608mSWRState Highway 28, Karnataka
39SVHESisvinhalli  13:04+3513:05+351m--1335.741594mSWRState Highway 28, Karnataka
40HBSHebsur (3)  13:11+3513:12+351m--1339.876592mSWRrailway station road, Karnataka
41KUGKusugal (2)X  13:19+3613:20+361m--1348.615637mSWRUnnamed Road, Karnataka
41.1HBQHubli East Cabin  13:57-13:57-  1357.7 15636mSWRHubli, Karnataka
42UBL•Hubli Junction (5)•  14:00+13---1358.5-640mSWRHubli - 580020, Karnataka
Scroll to Top
Scroll to Bottom